Time;durP1;ratioP1;P1;durP2;ratioP2;P2;SDS_P1;SDS_P2;PMS_P1;PMS_P2;Temp;Humidity;BMP_temperature;BMP_pressure;BME280_temperature;BME280_humidity;BME280_pressure;Samples;Min_cycle;Max_cycle;Signal;HPM_P1;HPM_P2
2023/05/02 00:02:18;;;;;;;28.70;26.50;;;12.10;99.90;;;;;;5051070;28;20440;-71
2023/05/02 00:04:45;;;;;;;27.58;25.27;;;12.10;99.90;;;;;;5048084;28;20426;-71
2023/05/02 00:07:12;;;;;;;27.97;25.67;;;12.10;99.90;;;;;;5042212;28;20515;-72
2023/05/02 00:09:39;;;;;;;27.60;25.30;;;12.00;99.90;;;;;;5040817;28;20417;-71
2023/05/02 00:12:07;;;;;;;29.27;26.88;;;12.00;99.90;;;;;;5048161;28;20414;-71
2023/05/02 00:14:33;;;;;;;29.77;27.27;;;11.90;99.90;;;;;;5050449;28;20418;-71
2023/05/02 00:17:00;;;;;;;29.25;26.75;;;11.90;99.90;;;;;;5053247;28;20432;-71
2023/05/02 00:19:27;;;;;;;30.00;27.30;;;11.80;99.90;;;;;;5051385;28;20421;-71
2023/05/02 00:21:54;;;;;;;29.95;27.45;;;11.70;99.90;;;;;;5041402;28;20436;-71
2023/05/02 00:24:20;;;;;;;31.33;28.52;;;11.60;99.90;;;;;;5040887;28;20425;-71
2023/05/02 00:26:47;;;;;;;31.52;28.73;;;11.50;99.90;;;;;;5047784;28;20440;-71
2023/05/02 00:29:16;;;;;;;30.93;28.23;;;11.50;99.90;;;;;;5030863;28;20415;-71
2023/05/02 00:31:43;;;;;;;32.93;29.93;;;11.40;99.90;;;;;;5030615;28;20493;-71
2023/05/02 00:34:09;;;;;;;32.80;30.00;;;11.30;99.90;;;;;;5033401;28;20483;-72
2023/05/02 00:36:36;;;;;;;32.75;29.85;;;11.30;99.90;;;;;;5047553;28;20441;-72
2023/05/02 00:39:04;;;;;;;33.72;30.67;;;11.20;99.90;;;;;;5052589;28;20414;-71
2023/05/02 00:41:31;;;;;;;32.88;29.88;;;11.20;99.90;;;;;;5050874;28;20437;-70
2023/05/02 00:43:58;;;;;;;33.28;30.17;;;11.20;99.90;;;;;;5047493;28;20437;-70
2023/05/02 00:46:26;;;;;;;33.00;29.90;;;11.10;99.90;;;;;;5039258;28;20418;-71
2023/05/02 00:48:53;;;;;;;33.50;30.30;;;11.10;99.90;;;;;;5044682;28;20423;-71
2023/05/02 00:51:19;;;;;;;33.97;30.77;;;11.00;99.90;;;;;;5038446;28;20932;-70
2023/05/02 00:53:46;;;;;;;34.00;30.70;;;10.90;99.90;;;;;;5040003;28;20442;-71
2023/05/02 00:56:13;;;;;;;32.53;29.55;;;10.90;99.90;;;;;;5039771;28;20429;-71
2023/05/02 00:58:40;;;;;;;34.00;30.90;;;10.90;99.90;;;;;;5036959;28;20912;-72
2023/05/02 01:01:26;;;;;;;32.78;29.88;;;11.00;99.90;;;;;;5036098;28;20437;-71
2023/05/02 01:04:04;;;;;;;31.10;28.10;;;11.00;99.90;;;;;;5045353;28;20433;-72
2023/05/02 01:06:43;;;;;;;32.10;29.20;;;11.00;99.90;;;;;;5039469;28;20446;-71
2023/05/02 01:09:26;;;;;;;30.90;27.95;;;11.10;99.90;;;;;;5041701;28;20782;-70
2023/05/02 01:12:02;;;;;;;30.90;27.90;;;11.20;99.90;;;;;;5047355;28;20441;-71
2023/05/02 01:14:30;;;;;;;31.20;28.27;;;11.20;99.90;;;;;;5045596;28;20419;-71
2023/05/02 01:17:03;;;;;;;32.03;28.83;;;11.20;99.90;;;;;;5040329;28;20425;-72
2023/05/02 01:19:35;;;;;;;31.63;28.73;;;11.10;99.90;;;;;;5035038;28;20444;-71
2023/05/02 01:22:05;;;;;;;31.65;28.65;;;11.10;99.90;;;;;;5045733;28;20437;-71
2023/05/02 01:24:40;;;;;;;33.88;30.67;;;11.00;99.90;;;;;;5047819;28;20819;-70
2023/05/02 01:27:15;;;;;;;34.65;31.45;;;11.00;99.90;;;;;;5038302;28;20444;-71
2023/05/02 01:29:45;;;;;;;33.50;30.40;;;11.00;99.90;;;;;;5048516;28;20839;-70
2023/05/02 01:32:14;;;;;;;35.25;31.85;;;10.90;99.90;;;;;;5040586;28;20493;-70
2023/05/02 01:34:45;;;;;;;34.25;30.92;;;10.90;99.90;;;;;;5043002;28;20421;-71
2023/05/02 01:37:13;;;;;;;34.13;31.00;;;10.90;99.90;;;;;;5045570;28;20430;-71
2023/05/02 01:39:40;;;;;;;36.25;32.75;;;10.90;99.90;;;;;;5044340;28;20430;-71
2023/05/02 01:42:07;;;;;;;36.88;33.17;;;10.90;99.90;;;;;;5047088;28;20429;-72
2023/05/02 01:44:35;;;;;;;37.83;33.93;;;10.80;99.90;;;;;;5048960;28;20417;-71
2023/05/02 01:47:05;;;;;;;37.85;34.10;;;10.70;99.90;;;;;;5034922;28;20461;-71
2023/05/02 01:49:34;;;;;;;38.22;34.42;;;10.60;99.90;;;;;;5052958;28;20429;-71
2023/05/02 01:52:04;;;;;;;38.28;34.47;;;10.70;99.90;;;;;;5051851;28;20418;-70
2023/05/02 01:54:33;;;;;;;39.67;35.72;;;10.70;99.90;;;;;;5043813;28;20444;-71
2023/05/02 01:57:02;;;;;;;38.30;34.40;;;10.70;99.90;;;;;;5043057;28;20450;-72
2023/05/02 01:59:31;;;;;;;39.40;35.50;;;10.70;99.90;;;;;;5035534;28;20477;-71
2023/05/02 02:02:01;;;;;;;40.28;36.17;;;10.60;99.90;;;;;;5035934;28;20442;-72
2023/05/02 02:04:30;;;;;;;41.40;37.30;;;10.60;99.90;;;;;;5029427;28;20481;-71
2023/05/02 02:07:02;;;;;;;40.47;36.28;;;10.50;99.90;;;;;;5029266;28;20916;-71
2023/05/02 02:09:30;;;;;;;40.47;36.35;;;10.60;99.90;;;;;;5033790;28;20444;-71
2023/05/02 02:12:02;;;;;;;42.22;38.03;;;10.60;99.90;;;;;;5032290;28;20422;-71
2023/05/02 02:14:34;;;;;;;40.63;36.33;;;10.60;99.90;;;;;;5034679;28;20429;-71
2023/05/02 02:17:05;;;;;;;41.80;37.50;;;10.60;99.90;;;;;;5037314;28;20431;-71
2023/05/02 02:19:34;;;;;;;42.30;37.90;;;10.70;99.90;;;;;;5033867;28;20439;-71
2023/05/02 02:22:03;;;;;;;41.00;36.78;;;10.70;99.90;;;;;;5051163;28;20516;-71
2023/05/02 02:24:32;;;;;;;39.58;35.58;;;10.70;99.90;;;;;;5050559;28;20429;-71
2023/05/02 02:26:58;;;;;;;40.63;36.22;;;10.70;99.90;;;;;;5044650;28;20440;-71
2023/05/02 02:29:25;;;;;;;41.45;37.15;;;10.70;99.90;;;;;;5029225;28;20905;-71
2023/05/02 02:31:52;;;;;;;39.75;35.65;;;10.80;99.90;;;;;;5038264;28;20916;-70
2023/05/02 02:34:19;;;;;;;40.22;36.15;;;10.70;99.90;;;;;;5040715;28;20420;-71
2023/05/02 02:36:53;;;;;;;38.10;34.00;;;10.80;99.90;;;;;;5052656;28;20930;-73
2023/05/02 02:39:31;;;;;;;38.33;34.22;;;10.80;99.90;;;;;;5045884;28;20441;-71
2023/05/02 02:42:12;;;;;;;39.50;35.33;;;10.70;99.90;;;;;;5046404;28;20416;-69
2023/05/02 02:44:51;;;;;;;39.28;35.17;;;10.70;99.90;;;;;;5047799;28;20436;-71
2023/05/02 02:47:27;;;;;;;35.50;31.70;;;10.70;99.90;;;;;;5048166;28;20900;-72
2023/05/02 02:50:08;;;;;;;37.63;33.23;;;10.70;99.90;;;;;;5048217;28;20500;-71
2023/05/02 02:52:46;;;;;;;34.50;30.85;;;10.60;99.90;;;;;;5040393;28;20793;-71
2023/05/02 02:55:19;;;;;;;34.63;30.90;;;10.60;99.90;;;;;;5045677;28;20433;-71
2023/05/02 02:57:51;;;;;;;32.33;29.00;;;10.70;99.90;;;;;;5050296;28;20430;-69
2023/05/02 03:00:21;;;;;;;32.80;29.30;;;10.70;99.90;;;;;;5035692;28;20513;-70
2023/05/02 03:02:49;;;;;;;32.97;28.37;;;10.70;99.90;;;;;;5032531;28;20426;-70
2023/05/02 03:05:16;;;;;;;31.55;28.05;;;10.70;99.90;;;;;;5045742;28;20421;-72
2023/05/02 03:07:44;;;;;;;30.67;27.38;;;10.70;99.90;;;;;;5046693;28;20433;-71
2023/05/02 03:10:11;;;;;;;32.33;28.00;;;10.70;99.90;;;;;;5041620;28;20445;-71
2023/05/02 03:12:38;;;;;;;32.88;29.38;;;10.70;99.90;;;;;;5046025;28;20928;-70
2023/05/02 03:15:19;;;;;;;31.58;28.13;;;10.70;99.90;;;;;;5047478;28;20432;-71
2023/05/02 03:17:46;;;;;;;31.97;28.37;;;10.70;99.90;;;;;;5039614;28;20427;-72
2023/05/02 03:20:13;;;;;;;34.23;29.90;;;10.70;99.90;;;;;;5038788;28;20425;-71
2023/05/02 03:22:40;;;;;;;31.30;27.33;;;10.70;99.90;;;;;;5032634;28;20410;-71
2023/05/02 03:25:09;;;;;;;32.03;28.73;;;10.80;99.90;;;;;;5040066;28;20429;-71
2023/05/02 03:27:35;;;;;;;33.22;29.73;;;10.70;99.90;;;;;;5045147;28;20492;-71
2023/05/02 03:30:02;;;;;;;31.42;28.02;;;10.70;99.90;;;;;;5047769;28;20597;-72
2023/05/02 03:32:29;;;;;;;29.45;26.35;;;10.70;99.90;;;;;;5047260;28;20427;-72
2023/05/02 03:34:57;;;;;;;32.50;28.20;;;10.70;99.90;;;;;;5045459;28;20412;-72
2023/05/02 03:37:24;;;;;;;31.33;27.65;;;10.70;99.90;;;;;;5035792;28;20785;-72
2023/05/02 03:39:51;;;;;;;30.65;27.40;;;10.80;99.90;;;;;;5045900;28;20796;-72
2023/05/02 03:42:19;;;;;;;29.70;25.87;;;10.80;99.90;;;;;;5047572;28;20458;-72
2023/05/02 03:44:46;;;;;;;29.50;26.40;;;10.80;99.90;;;;;;5051368;28;20512;-71
2023/05/02 03:47:13;;;;;;;30.02;26.80;;;10.80;99.90;;;;;;5034620;28;20413;-72
2023/05/02 03:49:40;;;;;;;29.70;26.48;;;10.80;99.90;;;;;;5044611;28;20433;-71
2023/05/02 03:52:07;;;;;;;29.52;26.42;;;10.80;99.90;;;;;;5044792;28;20829;-72
2023/05/02 03:54:33;;;;;;;28.75;25.65;;;10.80;99.90;;;;;;5037669;28;21017;-71
2023/05/02 03:57:00;;;;;;;30.27;26.50;;;10.90;99.90;;;;;;5041968;28;20479;-71
2023/05/02 03:59:29;;;;;;;28.70;25.60;;;10.90;99.90;;;;;;5050958;28;20422;-71
2023/05/02 04:01:56;;;;;;;30.27;27.08;;;10.90;99.90;;;;;;5040910;28;20430;-71
2023/05/02 04:04:22;;;;;;;30.98;26.40;;;10.90;99.90;;;;;;5042122;28;20479;-71
2023/05/02 04:06:49;;;;;;;28.33;25.33;;;10.90;99.90;;;;;;5031132;28;20419;-71
2023/05/02 04:09:16;;;;;;;29.00;25.92;;;10.90;99.90;;;;;;5042952;28;20795;-71
2023/05/02 04:11:42;;;;;;;30.13;25.80;;;10.80;99.90;;;;;;5039517;28;20411;-71
2023/05/02 04:14:09;;;;;;;29.33;26.15;;;10.80;99.90;;;;;;5042979;28;20923;-71
2023/05/02 04:16:37;;;;;;;29.33;26.13;;;10.80;99.90;;;;;;5050284;28;20422;-70
2023/05/02 04:21:30;;;;;;;29.17;26.07;;;10.90;99.90;;;;;;5038959;22;20446;-69
2023/05/02 04:23:57;;;;;;;29.20;26.10;;;10.90;99.90;;;;;;5026346;28;20461;-68
2023/05/02 04:26:23;;;;;;;28.40;24.95;;;11.00;99.90;;;;;;5040752;28;20440;-68
2023/05/02 04:28:50;;;;;;;29.52;26.33;;;10.90;99.90;;;;;;5031552;28;20415;-70
2023/05/02 04:31:17;;;;;;;30.15;26.15;;;10.90;99.90;;;;;;5022283;28;20493;-70
2023/05/02 04:33:47;;;;;;;30.67;25.77;;;10.90;99.90;;;;;;5013209;28;20436;-67
2023/05/02 04:36:15;;;;;;;29.38;26.27;;;10.90;99.90;;;;;;5010531;28;20422;-70
2023/05/02 04:38:41;;;;;;;29.90;25.70;;;10.90;99.90;;;;;;5013127;28;20464;-70
2023/05/02 04:41:08;;;;;;;30.02;25.85;;;10.90;99.90;;;;;;5012779;28;20910;-70
2023/05/02 04:43:35;;;;;;;28.67;25.60;;;10.90;99.90;;;;;;5019572;28;20446;-69
2023/05/02 04:46:02;;;;;;;31.05;26.00;;;10.90;99.90;;;;;;5005890;28;20439;-70
2023/05/02 04:48:28;;;;;;;28.92;25.13;;;10.90;99.90;;;;;;5000161;28;20434;-69
2023/05/02 04:50:56;;;;;;;28.40;25.40;;;10.80;99.90;;;;;;5005604;28;20968;-69
2023/05/02 04:53:23;;;;;;;29.30;25.20;;;10.90;99.90;;;;;;4996939;28;20432;-69
2023/05/02 04:55:51;;;;;;;30.65;27.38;;;10.80;99.90;;;;;;5003331;28;20491;-68
2023/05/02 04:58:17;;;;;;;29.90;26.13;;;10.90;99.90;;;;;;4997900;28;20548;-67
2023/05/02 05:00:44;;;;;;;27.77;24.77;;;10.90;99.90;;;;;;5002476;28;20444;-67
2023/05/02 05:03:11;;;;;;;30.45;26.23;;;10.90;99.90;;;;;;5001691;28;20444;-70
2023/05/02 05:05:38;;;;;;;30.15;25.52;;;10.80;99.90;;;;;;5010407;28;20419;-67
2023/05/02 05:08:06;;;;;;;29.55;25.23;;;10.80;99.90;;;;;;5009996;28;20946;-69
2023/05/02 05:10:34;;;;;;;29.17;25.10;;;10.80;99.90;;;;;;5005257;28;20416;-70
2023/05/02 05:13:01;;;;;;;27.73;24.73;;;10.80;99.90;;;;;;5011615;28;20443;-69
2023/05/02 05:15:27;;;;;;;26.13;23.33;;;10.80;99.90;;;;;;5003873;28;20568;-69
2023/05/02 05:17:54;;;;;;;27.00;24.20;;;10.90;99.90;;;;;;5009966;28;20770;-69
2023/05/02 05:20:21;;;;;;;25.10;22.40;;;11.00;99.90;;;;;;5012056;28;20966;-71
2023/05/02 05:22:47;;;;;;;23.83;21.23;;;11.10;99.90;;;;;;5005404;28;20943;-69
2023/05/02 05:25:16;;;;;;;24.92;21.75;;;11.10;99.90;;;;;;4993687;28;20430;-69
2023/05/02 05:27:43;;;;;;;24.00;21.40;;;11.10;99.90;;;;;;5024618;28;20468;-71
2023/05/02 05:30:10;;;;;;;23.10;20.70;;;11.10;99.90;;;;;;5025031;28;20445;-69
2023/05/02 05:32:37;;;;;;;23.98;21.38;;;11.10;99.90;;;;;;4999838;28;20620;-68
2023/05/02 05:35:05;;;;;;;24.20;21.42;;;11.20;99.90;;;;;;4998295;28;20461;-69
2023/05/02 05:37:31;;;;;;;25.10;21.25;;;11.20;99.90;;;;;;4999226;28;20441;-68
2023/05/02 05:39:58;;;;;;;23.23;20.75;;;11.20;99.90;;;;;;5000205;28;20451;-69
2023/05/02 05:42:26;;;;;;;23.98;20.83;;;11.30;99.90;;;;;;5001123;28;20960;-69
2023/05/02 05:44:53;;;;;;;22.63;20.10;;;11.30;99.90;;;;;;5001889;28;20440;-69
2023/05/02 05:47:21;;;;;;;22.45;20.20;;;11.30;99.90;;;;;;5018778;28;20424;-68
2023/05/02 05:49:48;;;;;;;21.70;19.40;;;11.30;99.90;;;;;;5000212;28;20444;-69
2023/05/02 05:52:14;;;;;;;22.63;19.98;;;11.20;99.90;;;;;;5004930;28;20497;-69
2023/05/02 05:54:41;;;;;;;22.40;19.92;;;11.30;99.90;;;;;;5006360;28;20437;-68
2023/05/02 05:57:08;;;;;;;22.17;19.88;;;11.20;99.90;;;;;;5012815;28;20419;-69
2023/05/02 05:59:36;;;;;;;22.00;19.73;;;11.20;99.90;;;;;;5014923;28;20433;-69
2023/05/02 06:02:04;;;;;;;21.35;19.10;;;11.20;99.90;;;;;;5011903;28;20957;-69
2023/05/02 06:04:31;;;;;;;21.73;19.43;;;11.20;99.90;;;;;;5003198;28;20432;-68
2023/05/02 06:06:57;;;;;;;21.05;18.75;;;11.20;99.90;;;;;;5002089;28;20886;-68
2023/05/02 06:09:24;;;;;;;21.50;19.20;;;11.30;99.90;;;;;;5000694;28;20418;-69
2023/05/02 06:11:51;;;;;;;22.65;19.17;;;11.30;99.90;;;;;;5004054;28;21188;-69
2023/05/02 06:14:18;;;;;;;21.75;19.45;;;11.30;99.90;;;;;;5007350;28;20516;-69
2023/05/02 06:16:46;;;;;;;23.90;19.00;;;11.30;99.90;;;;;;5002283;28;20432;-69
2023/05/02 06:19:13;;;;;;;21.88;19.48;;;11.30;99.90;;;;;;5004184;28;20429;-69
2023/05/02 06:21:40;;;;;;;24.30;20.77;;;11.30;99.90;;;;;;4997115;28;20444;-67
2023/05/02 06:24:07;;;;;;;24.33;20.48;;;11.20;99.90;;;;;;4992594;28;20523;-67
2023/05/02 06:26:33;;;;;;;25.13;20.88;;;11.10;99.90;;;;;;4992322;28;20463;-67
2023/05/02 06:29:01;;;;;;;26.52;20.95;;;11.10;99.90;;;;;;4998155;28;20523;-65
2023/05/02 06:31:28;;;;;;;25.37;21.40;;;11.00;99.90;;;;;;4996248;28;20434;-68
2023/05/02 06:33:56;;;;;;;23.55;20.80;;;11.00;99.90;;;;;;5002821;28;20424;-66
2023/05/02 06:36:22;;;;;;;25.23;22.27;;;11.00;99.90;;;;;;5001895;28;20433;-66
2023/05/02 06:38:49;;;;;;;28.60;23.05;;;11.00;99.90;;;;;;4999045;28;20436;-67
2023/05/02 06:41:16;;;;;;;31.85;23.52;;;10.90;99.90;;;;;;5000689;28;20536;-68
2023/05/02 06:43:43;;;;;;;27.35;23.52;;;10.90;99.90;;;;;;5005369;28;20417;-68
2023/05/02 06:46:09;;;;;;;30.08;23.42;;;10.90;99.90;;;;;;5000364;28;20457;-66
2023/05/02 06:48:36;;;;;;;31.47;23.80;;;10.90;99.90;;;;;;4999705;28;20818;-68
2023/05/02 06:51:04;;;;;;;29.90;23.20;;;10.90;99.90;;;;;;4995701;28;20436;-67
2023/05/02 06:53:31;;;;;;;27.98;22.70;;;10.80;99.90;;;;;;5013549;28;20424;-68
2023/05/02 06:55:58;;;;;;;31.08;24.73;;;10.80;99.90;;;;;;5007082;28;20804;-67
2023/05/02 06:58:25;;;;;;;29.17;23.55;;;10.90;99.90;;;;;;5009126;28;20437;-69
2023/05/02 07:00:51;;;;;;;28.40;22.53;;;10.90;99.90;;;;;;5000587;28;20437;-70
2023/05/02 07:03:18;;;;;;;26.83;22.25;;;10.90;99.90;;;;;;5009423;28;20472;-67
2023/05/02 07:05:45;;;;;;;25.17;20.90;;;11.00;99.90;;;;;;4996964;28;20441;-69
2023/05/02 07:08:13;;;;;;;26.85;21.35;;;11.00;99.90;;;;;;5003850;28;20840;-66
2023/05/02 07:10:39;;;;;;;23.40;20.30;;;11.00;99.90;;;;;;5011995;28;20435;-67
2023/05/02 07:13:06;;;;;;;23.92;20.42;;;11.00;99.90;;;;;;5026504;28;20446;-67
2023/05/02 07:15:33;;;;;;;23.60;19.88;;;11.10;99.90;;;;;;5015820;28;20856;-66
2023/05/02 07:18:00;;;;;;;21.90;19.60;;;11.10;99.90;;;;;;5005790;28;20961;-68
2023/05/02 07:20:26;;;;;;;21.17;18.98;;;11.10;99.90;;;;;;5006708;28;20516;-66
2023/05/02 07:22:53;;;;;;;20.25;18.15;;;11.00;99.90;;;;;;5010139;28;20436;-66
2023/05/02 07:25:22;;;;;;;20.20;18.10;;;11.10;99.90;;;;;;5019180;28;20449;-67
2023/05/02 07:27:48;;;;;;;20.87;17.93;;;11.10;99.90;;;;;;5018899;28;20444;-67
2023/05/02 07:30:15;;;;;;;21.80;19.50;;;11.10;99.90;;;;;;5000220;28;20507;-67
2023/05/02 07:32:42;;;;;;;21.00;18.80;;;11.30;99.90;;;;;;5023041;28;20519;-67
2023/05/02 07:35:09;;;;;;;21.17;18.95;;;11.40;99.90;;;;;;5013718;28;20425;-67
2023/05/02 07:37:36;;;;;;;20.77;18.77;;;11.50;99.90;;;;;;5020802;28;20436;-67
2023/05/02 07:40:03;;;;;;;22.10;19.80;;;11.60;99.90;;;;;;5002817;28;20536;-67
2023/05/02 07:42:32;;;;;;;24.70;22.10;;;11.70;99.90;;;;;;5007881;28;20451;-67
2023/05/02 07:44:59;;;;;;;25.30;22.70;;;11.70;99.90;;;;;;5008885;28;20530;-67
2023/05/02 07:47:26;;;;;;;24.42;22.13;;;11.80;99.90;;;;;;5003477;28;20436;-67
2023/05/02 07:49:54;;;;;;;23.50;21.20;;;11.80;99.90;;;;;;5008005;28;20456;-67
2023/05/02 07:52:21;;;;;;;21.52;19.52;;;11.80;99.90;;;;;;4997115;28;20440;-67
2023/05/02 07:54:49;;;;;;;19.85;17.80;;;11.70;99.90;;;;;;5006656;28;20715;-66
2023/05/02 07:57:15;;;;;;;19.98;17.98;;;11.80;99.90;;;;;;5006539;28;20926;-66
2023/05/02 07:59:44;;;;;;;18.23;16.52;;;11.80;99.90;;;;;;5004445;28;20766;-66
2023/05/02 08:02:12;;;;;;;20.10;18.02;;;11.90;99.90;;;;;;5000085;28;20449;-66
2023/05/02 08:04:39;;;;;;;18.73;16.95;;;12.00;99.90;;;;;;4999441;28;20491;-67
2023/05/02 08:07:06;;;;;;;18.55;16.75;;;12.10;99.90;;;;;;5005067;28;20467;-67
2023/05/02 08:09:33;;;;;;;17.00;15.40;;;12.10;99.90;;;;;;5004210;28;20430;-67
2023/05/02 08:12:01;;;;;;;16.98;15.27;;;12.20;99.90;;;;;;5013436;28;20960;-66
2023/05/02 08:14:28;;;;;;;16.30;14.60;;;12.20;99.90;;;;;;5002497;28;20527;-66
2023/05/02 08:16:56;;;;;;;15.77;14.18;;;12.20;99.90;;;;;;5003390;28;20789;-66
2023/05/02 08:19:23;;;;;;;16.05;14.45;;;12.10;99.90;;;;;;5008751;28;20928;-66
2023/05/02 08:21:49;;;;;;;15.48;14.00;;;12.10;99.90;;;;;;5013712;28;20440;-67
2023/05/02 08:24:16;;;;;;;15.13;13.63;;;12.30;99.90;;;;;;5005157;28;20458;-67
2023/05/02 08:26:43;;;;;;;14.40;12.85;;;12.50;99.90;;;;;;5002235;28;20486;-67
2023/05/02 08:29:10;;;;;;;15.20;13.80;;;12.70;99.20;;;;;;5015055;28;20704;-69
2023/05/02 08:31:37;;;;;;;13.85;12.65;;;12.90;98.90;;;;;;5011542;28;20480;-66
2023/05/02 08:34:05;;;;;;;14.35;12.90;;;12.90;98.10;;;;;;4999926;28;20925;-67
2023/05/02 08:36:32;;;;;;;17.23;15.40;;;12.90;95.90;;;;;;5001247;28;20444;-66
2023/05/02 08:38:59;;;;;;;19.80;17.30;;;12.80;97.00;;;;;;5001389;28;20438;-67
2023/05/02 08:41:28;;;;;;;15.27;13.63;;;12.80;97.60;;;;;;5002089;28;20455;-63
2023/05/02 08:43:56;;;;;;;14.20;12.80;;;13.00;97.40;;;;;;5014148;28;20422;-73
2023/05/02 08:46:23;;;;;;;13.88;12.68;;;13.00;96.70;;;;;;5004670;28;20436;-73
2023/05/02 08:48:51;;;;;;;14.10;12.70;;;13.10;96.50;;;;;;5001935;28;20520;-73
2023/05/02 08:51:19;;;;;;;13.10;11.90;;;13.10;96.70;;;;;;5000880;28;20444;-72
2023/05/02 08:53:46;;;;;;;11.85;10.75;;;13.00;95.70;;;;;;5013676;28;20450;-73
2023/05/02 08:56:13;;;;;;;11.38;10.27;;;13.00;96.20;;;;;;5003866;28;20462;-73
2023/05/02 08:58:41;;;;;;;9.50;7.25;;;13.00;96.00;;;;;;5001232;28;20628;-73
2023/05/02 09:01:11;;;;;;;7.40;5.70;;;13.00;94.80;;;;;;4997866;28;20434;-73
2023/05/02 09:03:38;;;;;;;6.00;4.70;;;13.00;94.50;;;;;;4999313;28;20443;-73
2023/05/02 09:06:07;;;;;;;4.97;4.00;;;12.90;93.10;;;;;;5000939;28;20446;-72
2023/05/02 09:08:35;;;;;;;4.68;4.00;;;12.90;94.20;;;;;;4995400;28;20432;-73
2023/05/02 09:11:03;;;;;;;5.13;3.92;;;13.00;94.20;;;;;;5005561;28;20518;-72
2023/05/02 09:13:34;;;;;;;4.20;3.80;;;13.10;94.10;;;;;;5004792;28;20468;-72
2023/05/02 09:16:02;;;;;;;7.15;3.97;;;13.30;93.60;;;;;;4998587;28;20436;-73
2023/05/02 09:18:31;;;;;;;7.43;6.30;;;13.30;93.10;;;;;;5000842;28;20973;-72
2023/05/02 09:20:59;;;;;;;8.15;7.20;;;13.30;91.80;;;;;;5003912;28;20494;-72
2023/05/02 09:23:35;;;;;;;7.55;6.80;;;13.20;91.80;;;;;;5002431;28;20498;-72
2023/05/02 09:26:10;;;;;;;8.85;6.70;;;13.30;92.00;;;;;;5008367;28;20450;-72
2023/05/02 09:28:41;;;;;;;8.02;6.60;;;13.30;91.10;;;;;;5008740;28;20531;-72
2023/05/02 09:31:09;;;;;;;7.82;7.07;;;13.30;91.50;;;;;;5002059;28;20444;-73
2023/05/02 09:33:36;;;;;;;10.77;7.30;;;13.30;91.40;;;;;;4996524;28;20976;-73
2023/05/02 09:36:04;;;;;;;9.13;8.00;;;13.30;90.60;;;;;;4999593;28;20458;-73
2023/05/02 09:38:30;;;;;;;8.77;7.95;;;13.30;90.40;;;;;;5001204;28;20440;-72
2023/05/02 09:41:02;;;;;;;8.25;7.18;;;13.30;89.90;;;;;;5005392;28;20734;-72
2023/05/02 09:43:29;;;;;;;6.90;6.20;;;13.30;89.20;;;;;;5005902;28;20515;-72
2023/05/02 09:46:00;;;;;;;7.57;6.88;;;13.30;89.10;;;;;;4996788;28;20439;-72
2023/05/02 09:48:28;;;;;;;7.73;6.93;;;13.50;89.60;;;;;;5004781;28;21307;-72
2023/05/02 09:50:55;;;;;;;7.50;6.50;;;13.70;87.80;;;;;;5002682;28;20439;-72
2023/05/02 09:53:23;;;;;;;8.52;6.70;;;14.00;89.00;;;;;;4996971;28;20514;-74
2023/05/02 09:56:01;;;;;;;9.87;8.40;;;14.30;85.50;;;;;;5007687;28;20437;-72
2023/05/02 09:58:29;;;;;;;10.02;7.45;;;14.50;84.10;;;;;;5004526;28;20464;-74
2023/05/02 10:00:56;;;;;;;8.82;8.00;;;14.60;83.10;;;;;;5004562;28;20524;-74
2023/05/02 10:03:25;;;;;;;10.45;8.75;;;14.60;81.80;;;;;;5008830;28;20452;-72
2023/05/02 10:05:53;;;;;;;9.73;8.70;;;14.50;81.80;;;;;;5000056;28;20456;-73
2023/05/02 10:08:20;;;;;;;9.50;8.70;;;14.50;82.20;;;;;;5008504;28;20783;-72
2023/05/02 10:10:52;;;;;;;10.20;9.30;;;14.40;82.50;;;;;;5008914;28;20504;-74
2023/05/02 10:13:23;;;;;;;10.88;9.90;;;14.30;82.40;;;;;;4998650;28;20432;-73
2023/05/02 10:15:58;;;;;;;11.20;10.10;;;14.20;81.60;;;;;;4997751;28;21202;-74
2023/05/02 10:18:28;;;;;;;10.63;9.73;;;14.20;81.80;;;;;;4998771;28;20833;-72
2023/05/02 10:20:57;;;;;;;9.75;8.95;;;14.20;81.20;;;;;;5004742;28;20508;-72
2023/05/02 10:23:27;;;;;;;9.10;8.30;;;14.20;80.50;;;;;;5001792;28;20477;-72
2023/05/02 10:25:54;;;;;;;9.00;8.20;;;14.40;78.90;;;;;;5002201;28;20465;-72
2023/05/02 10:28:23;;;;;;;8.25;7.50;;;14.60;78.60;;;;;;5006724;28;20480;-72
2023/05/02 10:30:50;;;;;;;8.52;7.07;;;14.80;76.70;;;;;;5002487;28;20486;-72
2023/05/02 10:33:18;;;;;;;7.28;6.57;;;15.00;74.50;;;;;;5001944;28;20436;-73
2023/05/02 10:35:46;;;;;;;7.50;6.70;;;15.20;73.50;;;;;;5011612;28;20418;-72
2023/05/02 10:38:15;;;;;;;7.35;6.57;;;15.40;72.10;;;;;;4998468;28;20440;-73
2023/05/02 10:40:54;;;;;;;7.30;6.20;;;15.30;68.50;;;;;;5001874;28;22262;-73
2023/05/02 10:43:24;;;;;;;7.50;5.65;;;15.20;68.10;;;;;;5009664;28;20506;-73
2023/05/02 10:45:51;;;;;;;6.75;5.40;;;15.10;69.00;;;;;;5002421;28;20590;-76
2023/05/02 10:48:21;;;;;;;6.68;5.72;;;14.90;68.60;;;;;;4998079;28;20441;-73
2023/05/02 10:50:50;;;;;;;7.53;6.33;;;14.70;70.20;;;;;;5016842;28;20422;-73
2023/05/02 10:53:30;;;;;;;6.30;5.70;;;14.50;72.20;;;;;;5003766;28;20524;-74
2023/05/02 10:56:15;;;;;;;6.95;5.88;;;14.50;69.60;;;;;;4994601;28;20552;-73
2023/05/02 10:58:44;;;;;;;7.80;6.10;;;14.40;71.60;;;;;;4995053;28;20439;-74
2023/05/02 11:01:38;;;;;;;7.20;6.50;;;14.40;73.20;;;;;;4994760;28;20437;-73
2023/05/02 11:04:09;;;;;;;8.07;7.20;;;14.40;74.50;;;;;;4988982;28;20431;-73
2023/05/02 11:06:37;;;;;;;7.90;7.30;;;14.30;74.60;;;;;;4998912;28;20534;-71
2023/05/02 11:09:34;;;;;;;7.50;6.90;;;14.30;73.80;;;;;;5001823;28;20790;-74
2023/05/02 11:12:03;;;;;;;7.80;7.10;;;14.30;73.90;;;;;;5003864;28;20454;-72
2023/05/02 11:14:48;;;;;;;7.78;6.97;;;14.50;73.00;;;;;;5010113;28;20431;-73
2023/05/02 11:17:15;;;;;;;7.33;6.63;;;14.70;71.00;;;;;;4999940;28;20442;-73
2023/05/02 11:20:27;;;;;;;7.22;6.53;;;14.80;68.20;;;;;;5008507;28;20445;-73
2023/05/02 11:22:56;;;;;;;7.30;6.60;;;15.00;69.70;;;;;;5009233;28;20446;-73
2023/05/02 11:25:35;;;;;;;6.53;6.03;;;15.20;68.30;;;;;;5016511;28;20423;-73
2023/05/02 11:28:03;;;;;;;6.82;6.22;;;15.50;67.10;;;;;;4997289;28;20915;-74
2023/05/02 11:30:42;;;;;;;6.80;6.10;;;15.60;64.90;;;;;;5015859;23;20436;-76
2023/05/02 11:33:18;;;;;;;8.10;7.40;;;15.70;63.90;;;;;;5042875;28;20447;-76
2023/05/02 11:35:46;;;;;;;7.95;7.20;;;15.60;64.60;;;;;;5043272;28;20542;-76
2023/05/02 11:38:15;;;;;;;6.70;6.20;;;15.80;64.90;;;;;;5038228;28;20513;-76
2023/05/02 11:40:50;;;;;;;7.50;6.70;;;15.80;64.10;;;;;;5035370;28;20466;-76
2023/05/02 11:43:20;;;;;;;6.80;6.20;;;15.90;63.70;;;;;;5020322;28;20491;-77
2023/05/02 11:45:48;;;;;;;8.77;6.63;;;16.00;63.10;;;;;;5029177;28;20433;-76
2023/05/02 11:48:18;;;;;;;8.60;7.80;;;15.90;62.20;;;;;;5025067;28;20457;-76
2023/05/02 11:50:46;;;;;;;8.60;7.90;;;15.80;62.00;;;;;;5025352;28;20427;-77
2023/05/02 11:53:14;;;;;;;8.48;7.68;;;15.80;62.50;;;;;;5018376;28;20435;-75
2023/05/02 11:55:48;;;;;;;9.03;7.80;;;15.80;61.30;;;;;;5018340;28;20432;-77
2023/05/02 11:58:16;;;;;;;9.68;7.43;;;15.70;61.40;;;;;;5027822;28;20461;-77
2023/05/02 12:00:47;;;;;;;12.95;7.10;;;15.70;60.40;;;;;;5030047;28;20438;-75
2023/05/02 12:03:29;;;;;;;8.52;7.32;;;15.90;61.00;;;;;;5023452;28;20451;-76
2023/05/02 12:05:57;;;;;;;7.40;6.80;;;16.20;59.00;;;;;;5028670;28;20438;-77
2023/05/02 12:08:26;;;;;;;6.80;6.18;;;16.40;57.40;;;;;;5033237;28;20415;-77
2023/05/02 12:10:54;;;;;;;7.25;5.80;;;16.60;56.20;;;;;;5030303;28;20427;-76
2023/05/02 12:13:23;;;;;;;5.30;4.80;;;16.80;54.60;;;;;;5038314;28;20418;-75
2023/05/02 12:15:52;;;;;;;5.82;4.95;;;17.10;53.40;;;;;;5026067;28;20434;-75
2023/05/02 12:18:19;;;;;;;4.57;4.00;;;17.20;51.70;;;;;;5026722;28;20865;-75
2023/05/02 12:20:47;;;;;;;5.00;4.07;;;17.60;48.30;;;;;;5046223;28;20439;-75
2023/05/02 12:23:14;;;;;;;5.13;4.00;;;17.80;49.30;;;;;;5036105;28;20435;-73
2023/05/02 12:25:42;;;;;;;5.47;4.50;;;17.80;48.10;;;;;;5032493;28;20443;-75
2023/05/02 12:28:10;;;;;;;5.40;4.90;;;17.50;49.40;;;;;;5039351;28;20424;-76
2023/05/02 12:30:38;;;;;;;5.78;4.63;;;17.40;50.80;;;;;;5046479;28;20914;-75
2023/05/02 12:33:06;;;;;;;5.88;4.70;;;17.50;50.70;;;;;;5024056;28;20947;-74
2023/05/02 12:35:34;;;;;;;6.70;4.75;;;17.40;50.20;;;;;;5033933;28;20798;-74
2023/05/02 12:38:14;;;;;;;4.85;4.20;;;17.40;50.10;;;;;;5032066;28;20513;-75
2023/05/02 12:40:50;;;;;;;6.32;4.90;;;17.30;50.20;;;;;;5029804;28;20533;-75
2023/05/02 12:43:18;;;;;;;7.20;4.70;;;17.20;50.70;;;;;;5043897;28;20556;-73
2023/05/02 12:45:47;;;;;;;6.07;4.47;;;17.20;50.10;;;;;;5033594;28;20439;-74